Time;durP1;ratioP1;P1;durP2;ratioP2;P2;SDS_P1;SDS_P2;PMS_P1;PMS_P2;Temp;Humidity;BMP_temperature;BMP_pressure;BME280_temperature;BME280_humidity;BME280_pressure;Samples;Min_cycle;Max_cycle;Signal;HPM_P1;HPM_P2
2022/07/24 00:01:40;;;;;;;;;;;19.80;97.10;;;;;;5066028;28;19936;-85
2022/07/24 00:04:29;;;;;;;;;;;19.50;96.60;;;;;;5055548;28;19928;-85
2022/07/24 00:07:08;;;;;;;;;;;19.50;97.10;;;;;;5074032;28;19931;-85
2022/07/24 00:09:38;;;;;;;;;;;19.60;97.10;;;;;;5065935;28;19928;-86
2022/07/24 00:12:17;;;;;;;;;;;19.60;96.80;;;;;;5069568;28;19929;-85
2022/07/24 00:14:51;;;;;;;;;;;19.60;97.00;;;;;;5039421;28;19933;-85
2022/07/24 00:17:21;;;;;;;;;;;18.50;97.00;;;;;;5071239;28;19924;-86
2022/07/24 00:19:51;;;;;;;;;;;20.80;97.30;;;;;;5074373;28;20411;-86
2022/07/24 00:22:27;;;;;;;;;;;19.80;97.50;;;;;;5075782;28;19932;-85
2022/07/24 00:24:56;;;;;;;;;;;19.50;97.40;;;;;;5069934;28;19924;-85
2022/07/24 00:27:26;;;;;;;;;;;19.50;97.00;;;;;;5048419;28;19925;-86
2022/07/24 00:29:54;;;;;;;;;;;19.50;97.10;;;;;;5055818;28;19924;-85
2022/07/24 00:32:37;;;;;;;;;;;19.40;97.50;;;;;;5075805;28;20028;-85
2022/07/24 00:35:07;;;;;;;;;;;20.90;97.90;;;;;;5061084;28;19928;-85
2022/07/24 00:37:35;;;;;;;;;;;19.50;97.30;;;;;;5075483;28;19928;-85
2022/07/24 00:40:04;;;;;;;;;;;18.00;97.00;;;;;;5076090;28;20399;-85
2022/07/24 00:42:32;;;;;;;;;;;18.60;97.20;;;;;;5057478;28;19928;-85
2022/07/24 00:45:03;;;;;;;;;;;18.60;97.70;;;;;;5073752;28;19929;-85
2022/07/24 00:47:50;;;;;;;;;;;20.10;97.70;;;;;;5058638;28;19928;-85
2022/07/24 00:50:18;;;;;;;;;;;19.30;97.70;;;;;;5072029;28;19931;-86
2022/07/24 00:52:46;;;;;;;;;;;19.30;97.80;;;;;;5072989;28;19931;-85
2022/07/24 00:55:15;;;;;;;;;;;19.30;97.90;;;;;;5056169;28;19925;-86
2022/07/24 00:57:45;;;;;;;;;;;19.20;97.90;;;;;;5075060;28;19963;-85
2022/07/24 01:00:15;;;;;;;;;;;19.20;98.20;;;;;;5074588;28;20414;-85
2022/07/24 01:02:59;;;;;;;;;;;19.20;97.80;;;;;;5045746;28;20311;-85
2022/07/24 01:05:35;;;;;;;;;;;19.20;98.10;;;;;;5054064;28;19925;-85
2022/07/24 01:08:04;;;;;;;;;;;19.20;98.20;;;;;;5056904;28;19931;-85
2022/07/24 01:10:33;;;;;;;;;;;19.20;98.10;;;;;;5052572;28;19929;-85
2022/07/24 01:13:06;;;;;;;;;;;19.20;98.10;;;;;;5072818;28;19925;-85
2022/07/24 01:15:34;;;;;;;;;;;19.10;98.20;;;;;;5035082;28;19925;-85
2022/07/24 01:18:06;;;;;;;;;;;19.20;98.40;;;;;;5065584;28;20299;-85
2022/07/24 01:20:37;;;;;;;;;;;18.30;98.30;;;;;;5074113;28;20411;-84
2022/07/24 01:23:06;;;;;;;;;;;19.10;98.50;;;;;;5053918;28;19924;-85
2022/07/24 01:25:33;;;;;;;;;;;19.00;98.80;;;;;;5072013;28;20351;-85
2022/07/24 01:28:10;;;;;;;;;;;18.90;98.50;;;;;;5072978;28;19929;-85
2022/07/24 01:30:37;;;;;;;;;;;19.00;99.10;;;;;;5072993;28;19924;-85
2022/07/24 01:33:05;;;;;;;;;;;19.00;98.90;;;;;;5072110;28;19928;-85
2022/07/24 01:35:33;;;;;;;;;;;19.00;98.90;;;;;;5072643;28;20374;-85
2022/07/24 01:38:01;;;;;;;;;;;18.90;98.90;;;;;;5071904;28;19925;-85
2022/07/24 01:40:28;;;;;;;;;;;18.90;98.90;;;;;;5070764;28;20417;-85
2022/07/24 01:42:56;;;;;;;;;;;19.20;99.10;;;;;;5064029;28;20287;-85
2022/07/24 01:45:27;;;;;;;;;;;18.90;99.10;;;;;;5073143;28;19929;-86
2022/07/24 01:47:56;;;;;;;;;;;17.70;98.90;;;;;;5073297;28;19932;-85
2022/07/24 01:50:29;;;;;;;;;;;18.50;99.30;;;;;;5057503;28;19928;-85
2022/07/24 01:52:57;;;;;;;;;;;18.80;99.30;;;;;;5050873;28;19936;-85
2022/07/24 01:55:25;;;;;;;;;;;18.80;99.20;;;;;;5067932;28;19932;-85
2022/07/24 01:57:53;;;;;;;;;;;18.80;99.20;;;;;;5062541;28;20295;-85
2022/07/24 02:00:24;;;;;;;;;;;18.80;99.20;;;;;;5068275;28;19929;-85
2022/07/24 02:02:52;;;;;;;;;;;18.80;99.20;;;;;;5075310;28;19925;-85
2022/07/24 02:05:19;;;;;;;;;;;18.80;99.50;;;;;;5072147;28;19924;-85
2022/07/24 02:07:54;;;;;;;;;;;18.80;99.40;;;;;;5072831;28;19935;-85
2022/07/24 02:10:23;;;;;;;;;;;18.80;99.60;;;;;;5057494;28;19932;-85
2022/07/24 02:12:53;;;;;;;;;;;18.80;99.10;;;;;;5073606;28;20307;-85
2022/07/24 02:15:22;;;;;;;;;;;18.70;99.50;;;;;;5073573;28;19925;-85
2022/07/24 02:17:50;;;;;;;;;;;18.70;99.40;;;;;;5075455;28;20505;-85
2022/07/24 02:20:19;;;;;;;;;;;18.70;99.70;;;;;;5044820;28;19925;-85
2022/07/24 02:22:47;;;;;;;;;;;18.80;99.50;;;;;;5067480;28;20348;-85
2022/07/24 02:25:15;;;;;;;;;;;19.00;99.60;;;;;;5059789;28;19924;-85
2022/07/24 02:27:43;;;;;;;;;;;18.60;99.70;;;;;;5068077;28;19935;-85
2022/07/24 02:30:33;;;;;;;;;;;18.60;99.90;;;;;;5073269;28;19925;-84
2022/07/24 02:33:01;;;;;;;;;;;18.60;99.90;;;;;;5074632;28;19924;-84
2022/07/24 02:35:30;;;;;;;;;;;18.60;99.90;;;;;;5052240;28;19925;-86
2022/07/24 02:37:57;;;;;;;;;;;18.60;99.70;;;;;;5067787;28;19928;-85
2022/07/24 02:40:27;;;;;;;;;;;18.50;99.70;;;;;;5068051;28;20280;-86
2022/07/24 02:42:56;;;;;;;;;;;18.50;99.90;;;;;;5074178;28;19924;-85
2022/07/24 02:45:24;;;;;;;;;;;18.50;99.80;;;;;;5052741;28;19929;-86
2022/07/24 02:47:54;;;;;;;;;;;18.50;99.80;;;;;;5044354;28;19929;-85
2022/07/24 02:50:25;;;;;;;;;;;18.60;99.80;;;;;;5050073;28;19929;-85
2022/07/24 02:52:58;;;;;;;;;;;18.20;99.90;;;;;;5061477;28;19943;-85
2022/07/24 02:55:28;;;;;;;;;;;18.50;99.90;;;;;;5073868;28;19928;-85
2022/07/24 02:57:56;;;;;;;;;;;18.50;99.90;;;;;;5071267;28;19924;-85
2022/07/24 03:00:26;;;;;;;;;;;18.50;99.90;;;;;;5062346;28;20379;-85
2022/07/24 03:02:57;;;;;;;;;;;18.50;99.90;;;;;;5064931;28;19931;-85
2022/07/24 03:05:24;;;;;;;;;;;17.70;99.80;;;;;;5067029;28;20703;-85
2022/07/24 03:07:52;;;;;;;;;;;18.60;99.90;;;;;;5059676;28;20269;-85
2022/07/24 03:10:22;;;;;;;;;;;17.80;99.60;;;;;;5072822;28;19924;-85
2022/07/24 03:12:52;;;;;;;;;;;18.40;99.80;;;;;;5072772;28;19924;-85
2022/07/24 03:15:20;;;;;;;;;;;19.90;99.90;;;;;;5073847;28;19925;-86
2022/07/24 03:17:50;;;;;;;;;;;18.40;99.90;;;;;;5074307;28;19936;-85
2022/07/24 03:20:18;;;;;;;;;;;18.40;99.90;;;;;;5073950;28;19935;-85
2022/07/24 03:22:46;;;;;;;;;;;18.40;99.90;;;;;;5076641;28;19932;-85
2022/07/24 03:25:14;;;;;;;;;;;18.40;99.90;;;;;;5076186;28;20453;-85
2022/07/24 03:27:42;;;;;;;;;;;18.40;99.90;;;;;;5077591;28;19928;-85
2022/07/24 03:30:10;;;;;;;;;;;18.40;99.90;;;;;;5057026;28;19935;-85
2022/07/24 03:32:38;;;;;;;;;;;18.90;99.90;;;;;;5074683;28;19928;-85
2022/07/24 03:35:07;;;;;;;;;;;19.40;99.90;;;;;;5076033;28;19924;-85
2022/07/24 03:37:36;;;;;;;;;;;18.40;99.90;;;;;;5076738;28;19928;-85
2022/07/24 03:40:04;;;;;;;;;;;18.40;99.90;;;;;;5065910;28;19925;-85
2022/07/24 03:42:32;;;;;;;;;;;18.40;99.90;;;;;;5071861;28;19936;-85
2022/07/24 03:45:02;;;;;;;;;;;18.40;99.90;;;;;;5074271;28;19931;-84
2022/07/24 03:47:30;;;;;;;;;;;18.40;99.90;;;;;;5077860;28;19932;-85
2022/07/24 03:50:02;;;;;;;;;;;18.40;99.90;;;;;;5074868;28;19925;-85
2022/07/24 03:52:30;;;;;;;;;;;18.50;99.90;;;;;;5066508;28;19936;-85
2022/07/24 03:55:01;;;;;;;;;;;18.20;99.90;;;;;;5070340;28;19924;-85
2022/07/24 03:57:30;;;;;;;;;;;18.30;99.90;;;;;;5077099;28;20711;-85
2022/07/24 03:59:57;;;;;;;;;;;18.30;99.90;;;;;;5074058;28;19936;-85
2022/07/24 04:02:25;;;;;;;;;;;18.30;99.90;;;;;;5078117;28;19943;-86
2022/07/24 04:04:53;;;;;;;;;;;18.20;99.90;;;;;;5072205;28;20284;-85
2022/07/24 04:07:23;;;;;;;;;;;18.30;99.90;;;;;;5073617;28;19928;-86
2022/07/24 04:09:50;;;;;;;;;;;18.30;99.90;;;;;;5079241;28;20330;-85
2022/07/24 04:12:18;;;;;;;;;;;19.10;99.90;;;;;;5078936;28;19935;-85
2022/07/24 04:14:48;;;;;;;;;;;18.30;99.90;;;;;;5059514;28;19936;-85
2022/07/24 04:17:17;;;;;;;;;;;18.20;99.90;;;;;;5072805;28;19935;-85
2022/07/24 04:19:58;;;;;;;;;;;18.30;99.90;;;;;;5061309;28;19939;-85
2022/07/24 04:22:26;;;;;;;;;;;18.80;99.90;;;;;;5054701;28;19924;-85
2022/07/24 04:24:56;;;;;;;;;;;18.20;99.90;;;;;;4726339;28;10000055;-86
2022/07/24 04:27:43;;;;;;;;;;;18.20;99.90;;;;;;5078845;28;19929;-85
2022/07/24 04:30:15;;;;;;;;;;;18.20;99.90;;;;;;5045395;28;19936;-85
2022/07/24 04:32:44;;;;;;;;;;;18.20;99.90;;;;;;5047602;28;19955;-85
2022/07/24 04:35:13;;;;;;;;;;;18.10;99.90;;;;;;5082068;28;19933;-85
2022/07/24 04:37:41;;;;;;;;;;;18.20;99.90;;;;;;5066064;28;19924;-85
2022/07/24 04:40:09;;;;;;;;;;;17.80;99.90;;;;;;5046282;28;19924;-85
2022/07/24 04:42:42;;;;;;;;;;;18.20;99.90;;;;;;5077854;28;19928;-85
2022/07/24 04:45:16;;;;;;;;;;;18.20;99.90;;;;;;5046390;28;19940;-85
2022/07/24 04:47:44;;;;;;;;;;;18.30;99.90;;;;;;5075948;28;19925;-85
2022/07/24 04:50:15;;;;;;;;;;;18.20;99.90;;;;;;5067744;28;20376;-84
2022/07/24 04:52:42;;;;;;;;;;;18.20;99.90;;;;;;5057019;28;19925;-84
2022/07/24 04:55:12;;;;;;;;;;;18.30;99.90;;;;;;5061763;28;20138;-85
2022/07/24 04:57:41;;;;;;;;;;;18.30;99.90;;;;;;5080340;28;19925;-86
2022/07/24 05:00:13;;;;;;;;;;;18.30;99.90;;;;;;5058938;28;19926;-85
2022/07/24 05:02:42;;;;;;;;;;;17.30;99.90;;;;;;5081684;28;20287;-85
2022/07/24 05:05:09;;;;;;;;;;;18.30;99.90;;;;;;5084241;28;19954;-85
2022/07/24 05:07:44;;;;;;;;;;;18.30;99.90;;;;;;5079620;28;19932;-85
2022/07/24 05:10:13;;;;;;;;;;;18.40;99.90;;;;;;5081226;28;19928;-85
2022/07/24 05:12:47;;;;;;;;;;;18.20;99.90;;;;;;5082708;28;19929;-85
2022/07/24 05:15:29;;;;;;;;;;;18.70;99.90;;;;;;5080210;28;19925;-85
2022/07/24 05:17:59;;;;;;;;;;;18.50;99.90;;;;;;5062506;28;19925;-85
2022/07/24 05:20:26;;;;;;;;;;;18.50;99.90;;;;;;5082086;28;19936;-85
2022/07/24 05:22:54;;;;;;;;;;;18.50;99.90;;;;;;5083164;28;19932;-85
2022/07/24 05:25:32;;;;;;;;;;;17.40;99.80;;;;;;5077161;28;19935;-85
2022/07/24 05:28:07;;;;;;;;;;;19.00;99.90;;;;;;5055586;28;19924;-85
2022/07/24 05:30:36;;;;;;;;;;;18.50;99.90;;;;;;5057753;28;19934;-85
2022/07/24 05:33:08;;;;;;;;;;;17.90;99.90;;;;;;5078717;28;19935;-85
2022/07/24 05:35:35;;;;;;;;;;;19.50;99.90;;;;;;5078638;28;20411;-85
2022/07/24 05:38:16;;;;;;;;;;;18.50;99.90;;;;;;5076489;28;19936;-86
2022/07/24 05:40:44;;;;;;;;;;;18.50;99.90;;;;;;5075224;28;20336;-85
2022/07/24 05:43:11;;;;;;;;;;;18.50;99.90;;;;;;5075453;28;19939;-85
2022/07/24 05:45:39;;;;;;;;;;;18.60;99.90;;;;;;5076056;28;19931;-85
2022/07/24 05:48:10;;;;;;;;;;;18.50;99.90;;;;;;5072947;28;19932;-85
2022/07/24 05:50:51;;;;;;;;;;;18.50;99.90;;;;;;5063097;28;19925;-85
2022/07/24 05:53:26;;;;;;;;;;;18.50;99.90;;;;;;5076457;28;19947;-85
2022/07/24 05:55:53;;;;;;;;;;;18.40;99.90;;;;;;5059183;28;19932;-83
2022/07/24 05:58:24;;;;;;;;;;;18.50;99.90;;;;;;5078251;28;19924;-85
2022/07/24 06:00:53;;;;;;;;;;;18.50;99.90;;;;;;5069832;28;19971;-85
2022/07/24 06:03:35;;;;;;;;;;;18.60;99.90;;;;;;5065587;28;19925;-86
2022/07/24 06:06:04;;;;;;;;;;;18.70;99.90;;;;;;5077715;28;20384;-85
2022/07/24 06:08:39;;;;;;;;;;;18.80;99.90;;;;;;5077276;28;19928;-86
2022/07/24 06:11:12;;;;;;;;;;;18.80;99.90;;;;;;5077036;28;19928;-85
2022/07/24 06:13:41;;;;;;;;;;;18.90;99.90;;;;;;5075268;28;19928;-85
2022/07/24 06:16:13;;;;;;;;;;;18.50;99.90;;;;;;5045233;28;19939;-85
2022/07/24 06:18:57;;;;;;;;;;;19.00;99.80;;;;;;5076424;28;19935;-85
2022/07/24 06:21:24;;;;;;;;;;;19.50;99.80;;;;;;5076424;28;19925;-85
2022/07/24 06:23:52;;;;;;;;;;;19.20;99.70;;;;;;5070834;28;19932;-85
2022/07/24 06:26:27;;;;;;;;;;;19.30;99.60;;;;;;5078190;28;20268;-85
2022/07/24 06:28:54;;;;;;;;;;;19.30;99.50;;;;;;5055411;28;20406;-85
2022/07/24 06:31:22;;;;;;;;;;;19.40;99.60;;;;;;5074790;28;19929;-85
2022/07/24 06:33:50;;;;;;;;;;;19.40;99.10;;;;;;5079084;28;19925;-85
2022/07/24 06:36:21;;;;;;;;;;;19.40;99.30;;;;;;5077224;28;19928;-85
2022/07/24 06:38:50;;;;;;;;;;;19.40;99.30;;;;;;5074057;28;19924;-86
2022/07/24 06:41:18;;;;;;;;;;;19.40;99.40;;;;;;5074049;28;19924;-85
2022/07/24 06:43:45;;;;;;;;;;;19.50;99.30;;;;;;5065580;28;19925;-86
2022/07/24 06:46:15;;;;;;;;;;;19.50;99.30;;;;;;5075147;28;19939;-84
2022/07/24 06:48:45;;;;;;;;;;;19.60;99.20;;;;;;5077745;28;19928;-84
2022/07/24 06:51:17;;;;;;;;;;;19.90;98.90;;;;;;5076455;28;19937;-85
2022/07/24 06:53:47;;;;;;;;;;;19.90;98.70;;;;;;5075793;28;19925;-85
2022/07/24 06:56:16;;;;;;;;;;;19.90;98.90;;;;;;5041265;28;19928;-85
2022/07/24 06:58:45;;;;;;;;;;;20.60;99.20;;;;;;5074995;28;19948;-85
2022/07/24 07:01:16;;;;;;;;;;;19.90;98.50;;;;;;5069614;28;19929;-85
2022/07/24 07:03:44;;;;;;;;;;;20.00;98.50;;;;;;5056682;28;19925;-84
2022/07/24 07:06:33;;;;;;;;;;;20.00;98.20;;;;;;5077230;28;19929;-86
2022/07/24 07:09:10;;;;;;;;;;;20.10;98.10;;;;;;5058479;28;19933;-85
2022/07/24 07:11:45;;;;;;;;;;;20.10;98.10;;;;;;5068617;28;19936;-85
2022/07/24 07:14:20;;;;;;;;;;;20.10;98.00;;;;;;5076636;28;20115;-86
2022/07/24 07:16:48;;;;;;;;;;;20.20;97.70;;;;;;5074286;28;19925;-85
2022/07/24 07:19:15;;;;;;;;;;;20.20;97.50;;;;;;5075193;28;19930;-85
2022/07/24 07:21:43;;;;;;;;;;;20.30;97.50;;;;;;5059634;28;19978;-84
2022/07/24 07:24:13;;;;;;;;;;;20.40;97.00;;;;;;5049397;28;19932;-85
2022/07/24 07:26:51;;;;;;;;;;;20.40;97.30;;;;;;5073393;28;20193;-85
2022/07/24 07:29:26;;;;;;;;;;;20.40;96.60;;;;;;5061105;28;19936;-85
2022/07/24 07:32:05;;;;;;;;;;;20.60;96.40;;;;;;5054716;28;19936;-85
2022/07/24 07:34:39;;;;;;;;;;;20.60;96.20;;;;;;5062824;28;19929;-85
2022/07/24 07:37:07;;;;;;;;;;;22.10;97.10;;;;;;5067301;28;20096;-85
2022/07/24 07:39:36;;;;;;;;;;;20.60;95.80;;;;;;5044124;28;19935;-85
2022/07/24 07:42:09;;;;;;;;;;;20.70;95.50;;;;;;5075361;28;19940;-85
2022/07/24 07:44:38;;;;;;;;;;;20.70;95.50;;;;;;5068548;28;19929;-85
2022/07/24 07:47:06;;;;;;;;;;;20.80;95.50;;;;;;5077247;28;20322;-85
2022/07/24 07:49:34;;;;;;;;;;;20.90;95.60;;;;;;5075640;28;20686;-85
2022/07/24 07:52:07;;;;;;;;;;;23.00;96.50;;;;;;5055354;28;19925;-86
2022/07/24 07:54:42;;;;;;;;;;;21.10;95.50;;;;;;5065733;28;19952;-85
2022/07/24 07:57:14;;;;;;;;;;;21.50;95.60;;;;;;5075106;28;19924;-86
2022/07/24 07:59:43;;;;;;;;;;;21.30;96.10;;;;;;5051407;28;19929;-85
2022/07/24 08:02:23;;;;;;;;;;;21.30;95.10;;;;;;5075012;28;20398;-84
2022/07/24 08:04:56;;;;;;;;;;;21.90;95.20;;;;;;5076921;28;20160;-85
2022/07/24 08:10:49;;;;;;;;;;;21.70;94.70;;;;;;5076017;28;19928;-85
2022/07/24 08:13:19;;;;;;;;;;;21.60;94.00;;;;;;5061072;28;19932;-84
2022/07/24 08:15:53;;;;;;;;;;;21.60;94.20;;;;;;5061855;28;19925;-86
2022/07/24 08:18:22;;;;;;;;;;;21.70;94.00;;;;;;5071063;28;20293;-84
2022/07/24 08:20:53;;;;;;;;;;;21.80;94.30;;;;;;5058440;28;19924;-85
2022/07/24 08:23:29;;;;;;;;;;;21.80;94.50;;;;;;5054896;28;19925;-84
2022/07/24 08:26:04;;;;;;;;;;;21.90;93.90;;;;;;5063812;28;19929;-85
2022/07/24 08:28:35;;;;;;;;;;;22.50;93.90;;;;;;5068512;28;19932;-85
2022/07/24 08:31:05;;;;;;;;;;;22.10;93.70;;;;;;5077083;28;19961;-85
2022/07/24 08:33:40;;;;;;;;;;;22.20;93.70;;;;;;5079868;28;20376;-85
2022/07/24 08:36:12;;;;;;;;;;;22.30;93.50;;;;;;5078140;28;19932;-85
2022/07/24 08:38:46;;;;;;;;;;;22.40;93.50;;;;;;5080252;28;19935;-85
2022/07/24 08:41:22;;;;;;;;;;;22.60;93.10;;;;;;5078644;28;19931;-86
2022/07/24 08:43:53;;;;;;;;;;;22.70;92.80;;;;;;5077088;28;19935;-86
2022/07/24 08:46:23;;;;;;;;;;;22.80;92.70;;;;;;5078943;28;19928;-85
2022/07/24 08:48:54;;;;;;;;;;;21.90;92.20;;;;;;5071983;28;19932;-85
2022/07/24 08:51:33;;;;;;;;;;;23.00;91.60;;;;;;5075394;28;19931;-85
2022/07/24 08:54:14;;;;;;;;;;;23.00;91.10;;;;;;5077164;28;19959;-84
2022/07/24 08:56:45;;;;;;;;;;;21.90;91.10;;;;;;5065389;28;19928;-84
2022/07/24 08:59:17;;;;;;;;;;;23.20;91.00;;;;;;5075037;28;19924;-85
2022/07/24 09:01:52;;;;;;;;;;;23.30;90.60;;;;;;5042979;28;19924;-85
2022/07/24 09:04:38;;;;;;;;;;;23.30;90.50;;;;;;5060016;28;19925;-84
2022/07/24 09:07:08;;;;;;;;;;;24.90;90.40;;;;;;5076316;28;19925;-84
2022/07/24 09:09:36;;;;;;;;;;;23.40;89.20;;;;;;5068861;28;20368;-84
2022/07/24 09:12:06;;;;;;;;;;;23.50;89.70;;;;;;5061304;28;19932;-85
2022/07/24 09:14:38;;;;;;;;;;;23.80;88.70;;;;;;5076869;28;20656;-85
2022/07/24 09:17:18;;;;;;;;;;;23.70;88.70;;;;;;5071891;28;20175;-85
2022/07/24 09:19:47;;;;;;;;;;;23.70;86.50;;;;;;5078108;28;19924;-85
2022/07/24 09:22:30;;;;;;;;;;;23.80;87.20;;;;;;5058725;28;19924;-84
2022/07/24 09:25:04;;;;;;;;;;;24.10;86.10;;;;;;5057774;28;19929;-85
2022/07/24 09:27:37;;;;;;;;;;;23.80;86.60;;;;;;5075923;28;19939;-84
2022/07/24 09:30:05;;;;;;;;;;;23.90;86.40;;;;;;5075194;28;19924;-85
2022/07/24 09:32:42;;;;;;;;;;;24.00;86.30;;;;;;5069395;28;19928;-85
2022/07/24 09:35:15;;;;;;;;;;;24.10;85.70;;;;;;5072089;28;19943;-85
2022/07/24 09:37:55;;;;;;;;;;;23.70;84.90;;;;;;5072795;28;19928;-85
2022/07/24 09:40:34;;;;;;;;;;;24.30;85.10;;;;;;5074386;28;19931;-85
2022/07/24 09:43:23;;;;;;;;;;;24.40;84.50;;;;;;5076790;28;20828;-85
2022/07/24 09:46:06;;;;;;;;;;;23.10;83.80;;;;;;5073382;28;19928;-83
2022/07/24 09:48:39;;;;;;;;;;;24.50;84.30;;;;;;5079186;28;19928;-83
2022/07/24 09:51:20;;;;;;;;;;;24.60;83.40;;;;;;5091081;28;19931;-84
2022/07/24 09:53:53;;;;;;;;;;;24.60;83.70;;;;;;5057791;28;20122;-83
2022/07/24 09:56:21;;;;;;;;;;;24.70;82.30;;;;;;5060677;28;19948;-84
2022/07/24 09:58:52;;;;;;;;;;;24.60;82.60;;;;;;5070341;28;19932;-84
2022/07/24 10:01:23;;;;;;;;;;;25.00;84.00;;;;;;5091680;28;20100;-84
2022/07/24 10:04:00;;;;;;;;;;;24.80;82.50;;;;;;5081891;28;19925;-84
2022/07/24 10:06:36;;;;;;;;;;;24.90;83.00;;;;;;5065129;28;19983;-85
2022/07/24 10:09:12;;;;;;;;;;;24.80;81.80;;;;;;5070203;28;19932;-85
2022/07/24 10:11:44;;;;;;;;;;;24.90;81.80;;;;;;5045864;28;19929;-84
2022/07/24 10:14:16;;;;;;;;;;;24.60;81.00;;;;;;5041605;28;20315;-85
2022/07/24 10:16:49;;;;;;;;;;;25.10;81.60;;;;;;5072816;28;19956;-84
2022/07/24 10:19:48;;;;;;;;;;;23.40;80.00;;;;;;5072434;28;19935;-84
2022/07/24 10:22:17;;;;;;;;;;;25.20;79.80;;;;;;5056961;28;19932;-84
2022/07/24 10:24:54;;;;;;;;;;;25.30;79.10;;;;;;5086743;28;19929;-85
2022/07/24 10:27:51;;;;;;;;;;;25.60;78.80;;;;;;5075840;28;19932;-84
2022/07/24 10:30:21;;;;;;;;;;;25.50;79.00;;;;;;5073245;28;19932;-84
2022/07/24 10:32:50;;;;;;;;;;;25.60;78.60;;;;;;5063572;28;19929;-84
2022/07/24 10:35:27;;;;;;;;;;;25.80;78.30;;;;;;5073957;28;19948;-84
2022/07/24 10:38:08;;;;;;;;;;;25.90;77.10;;;;;;5062180;28;19939;-84
2022/07/24 10:40:48;;;;;;;;;;;26.00;75.50;;;;;;5075929;28;20311;-84
2022/07/24 10:43:17;;;;;;;;;;;26.10;75.30;;;;;;5087295;28;19936;-84
2022/07/24 10:45:53;;;;;;;;;;;26.10;75.10;;;;;;5071589;28;19933;-85
2022/07/24 10:48:28;;;;;;;;;;;26.20;75.20;;;;;;5075868;28;19931;-84
2022/07/24 10:51:00;;;;;;;;;;;26.20;75.60;;;;;;5081242;28;19931;-83
2022/07/24 10:53:47;;;;;;;;;;;26.40;75.60;;;;;;5077188;28;20371;-84
2022/07/24 10:56:22;;;;;;;;;;;26.40;75.10;;;;;;5084327;28;20053;-84
2022/07/24 10:58:52;;;;;;;;;;;26.60;74.30;;;;;;5081220;28;20362;-85
2022/07/24 11:01:28;;;;;;;;;;;26.60;74.70;;;;;;5076968;28;19933;-84
2022/07/24 11:03:58;;;;;;;;;;;26.70;74.10;;;;;;5085778;28;19928;-84
2022/07/24 11:06:41;;;;;;;;;;;26.80;73.80;;;;;;5075249;28;19935;-85
2022/07/24 11:09:09;;;;;;;;;;;26.90;73.80;;;;;;5059265;28;19932;-85
2022/07/24 11:18:06;;;;;;;;;;;;;;;;;;;;;
2022/07/24 11:20:37;;;;;;;;;;;28.00;75.00;;;;;;5079109;28;19928;-84
2022/07/24 11:23:21;;;;;;;;;;;27.30;73.50;;;;;;5073710;28;19927;-85
2022/07/24 11:26:31;;;;;;;;;;;27.20;73.80;;;;;;5057182;28;19932;-84
2022/07/24 11:29:14;;;;;;;;;;;27.30;74.00;;;;;;5085025;28;20411;-86
2022/07/24 11:32:07;;;;;;;;;;;27.30;73.40;;;;;;5079605;28;19925;-85
2022/07/24 11:34:47;;;;;;;;;;;27.50;73.70;;;;;;5081005;28;20279;-85
2022/07/24 11:37:51;;;;;;;;;;;28.00;74.50;;;;;;5077194;28;19940;-85
2022/07/24 11:40:25;;;;;;;;;;;27.10;73.20;;;;;;5083065;28;19950;-85
2022/07/24 11:42:58;;;;;;;;;;;27.90;73.10;;;;;;5078298;28;20248;-84
2022/07/24 11:45:28;;;;;;;;;;;28.00;72.60;;;;;;5083247;28;19924;-85
2022/07/24 11:48:02;;;;;;;;;;;28.00;72.40;;;;;;5084828;28;19932;-84
2022/07/24 11:50:43;;;;;;;;;;;27.90;72.90;;;;;;5092760;28;20588;-84
2022/07/24 11:53:13;;;;;;;;;;;27.40;73.20;;;;;;5087581;28;20434;-85
2022/07/24 11:56:04;;;;;;;;;;;27.80;73.60;;;;;;5090477;28;19940;-83
2022/07/24 11:59:39;;;;;;;;;;;28.30;74.00;;;;;;5100870;28;19939;-84
2022/07/24 12:02:23;;;;;;;;;;;28.00;72.20;;;;;;5066679;28;19943;-85
2022/07/24 12:04:55;;;;;;;;;;;28.40;72.00;;;;;;5072391;28;19932;-84
2022/07/24 12:07:36;;;;;;;;;;;27.70;72.20;;;;;;5091920;28;19925;-85
2022/07/24 12:10:18;;;;;;;;;;;28.10;72.50;;;;;;5077552;28;19935;-85
2022/07/24 12:12:51;;;;;;;;;;;28.50;71.70;;;;;;5081169;28;19928;-85
2022/07/24 12:15:20;;;;;;;;;;;28.10;71.00;;;;;;5088137;28;19932;-84
2022/07/24 12:18:21;;;;;;;;;;;28.00;71.20;;;;;;5082093;28;20002;-85
2022/07/24 12:21:02;;;;;;;;;;;28.00;71.20;;;;;;5077285;28;19928;-85
2022/07/24 12:23:44;;;;;;;;;;;27.90;71.20;;;;;;5080744;28;20294;-85
2022/07/24 12:26:38;;;;;;;;;;;27.70;71.00;;;;;;5085173;28;19935;-85
2022/07/24 12:36:00;;;;;;;;;;;27.60;71.60;;;;;;5080774;28;19935;-85
2022/07/24 12:38:35;;;;;;;;;;;27.70;71.50;;;;;;5090242;28;19928;-85
2022/07/24 12:41:28;;;;;;;;;;;27.70;71.50;;;;;;5097049;28;20358;-85
2022/07/24 12:43:59;;;;;;;;;;;27.80;71.00;;;;;;5076799;28;19932;-85
2022/07/24 12:46:33;;;;;;;;;;;27.70;72.40;;;;;;5106087;28;19939;-84
2022/07/24 12:49:03;;;;;;;;;;;28.10;71.90;;;;;;5060501;28;19942;-85
2022/07/24 12:51:48;;;;;;;;;;;27.90;71.90;;;;;;5081844;28;20302;-85
2022/07/24 12:54:28;;;;;;;;;;;28.20;71.80;;;;;;5079459;28;19939;-84
2022/07/24 12:56:59;;;;;;;;;;;28.80;70.90;;;;;;5082324;28;20387;-84
2022/07/24 12:59:33;;;;;;;;;;;28.50;70.60;;;;;;5092637;28;19932;-85
2022/07/24 13:02:05;;;;;;;;;;;28.40;70.40;;;;;;5067662;28;20183;-86
2022/07/24 13:04:39;;;;;;;;;;;28.20;69.80;;;;;;5078755;28;19941;-84
2022/07/24 13:07:13;;;;;;;;;;;28.10;70.90;;;;;;5078335;28;19924;-85
2022/07/24 13:09:51;;;;;;;;;;;28.00;70.90;;;;;;5064332;28;20602;-86
2022/07/24 13:12:29;;;;;;;;;;;27.80;71.10;;;;;;5086709;28;19928;-85
2022/07/24 13:15:14;;;;;;;;;;;27.70;71.20;;;;;;5088201;28;19928;-84
2022/07/24 13:18:16;;;;;;;;;;;27.70;71.60;;;;;;5078515;28;19925;-84
2022/07/24 13:20:54;;;;;;;;;;;27.90;71.90;;;;;;5080171;28;21391;-85
2022/07/24 13:23:22;;;;;;;;;;;27.60;71.80;;;;;;5081549;28;19932;-84
2022/07/24 13:25:54;;;;;;;;;;;27.50;71.90;;;;;;5080925;28;19933;-85
2022/07/24 13:28:37;;;;;;;;;;;27.50;71.90;;;;;;5092924;28;19924;-86
2022/07/24 13:31:07;;;;;;;;;;;27.50;71.90;;;;;;5079355;28;19933;-84
2022/07/24 13:33:41;;;;;;;;;;;27.60;71.80;;;;;;5072723;28;19943;-85
2022/07/24 13:36:11;;;;;;;;;;;27.60;72.00;;;;;;5090021;28;19924;-85
2022/07/24 13:38:41;;;;;;;;;;;27.70;72.10;;;;;;5065864;28;19931;-84
2022/07/24 13:41:14;;;;;;;;;;;27.90;73.10;;;;;;5079497;28;19924;-85
2022/07/24 13:43:43;;;;;;;;;;;28.20;72.40;;;;;;5086423;28;19924;-84
2022/07/24 13:46:17;;;;;;;;;;;28.30;71.60;;;;;;5085068;28;19924;-86
2022/07/24 13:48:52;;;;;;;;;;;28.90;71.40;;;;;;5099296;28;19912;-85
2022/07/24 13:51:24;;;;;;;;;;;29.20;70.40;;;;;;5086856;28;19929;-84
2022/07/24 13:54:01;;;;;;;;;;;29.20;70.60;;;;;;5089765;28;19939;-86
2022/07/24 13:56:32;;;;;;;;;;;29.70;70.00;;;;;;5102081;28;19924;-85
2022/07/24 13:59:01;;;;;;;;;;;30.40;70.10;;;;;;5095452;28;19912;-84
2022/07/24 14:01:35;;;;;;;;;;;31.30;69.70;;;;;;5071420;28;19924;-86
2022/07/24 14:04:08;;;;;;;;;;;30.70;69.10;;;;;;5083886;28;19925;-85
2022/07/24 14:07:01;;;;;;;;;;;30.90;67.40;;;;;;5087851;28;19946;-86
2022/07/24 14:09:30;;;;;;;;;;;31.00;66.80;;;;;;5075628;28;19925;-85
2022/07/24 14:12:01;;;;;;;;;;;31.10;67.20;;;;;;5089408;28;19924;-86
2022/07/24 14:14:31;;;;;;;;;;;31.40;65.80;;;;;;5089294;28;19932;-86
2022/07/24 14:17:00;;;;;;;;;;;31.60;65.20;;;;;;5090010;28;19928;-85
2022/07/24 14:19:33;;;;;;;;;;;31.80;65.10;;;;;;5054349;28;19923;-87
2022/07/24 14:22:08;;;;;;;;;;;32.00;63.90;;;;;;5074703;28;19922;-85
2022/07/24 14:24:42;;;;;;;;;;;32.10;63.30;;;;;;5088229;28;19925;-86
2022/07/24 14:27:11;;;;;;;;;;;31.80;62.60;;;;;;5090185;28;19936;-85
2022/07/24 14:29:41;;;;;;;;;;;31.60;62.50;;;;;;5091390;28;20087;-86
2022/07/24 14:32:41;;;;;;;;;;;31.50;62.30;;;;;;5095269;28;19936;-85
2022/07/24 14:35:12;;;;;;;;;;;32.50;63.10;;;;;;5074475;28;19925;-86
2022/07/24 14:37:41;;;;;;;;;;;31.50;62.20;;;;;;5089697;28;19920;-86
2022/07/24 14:40:13;;;;;;;;;;;31.50;62.30;;;;;;5089555;28;19985;-86
2022/07/24 14:42:50;;;;;;;;;;;31.50;61.80;;;;;;5079926;28;19915;-87
2022/07/24 14:45:18;;;;;;;;;;;31.70;61.90;;;;;;5074042;28;19931;-84
2022/07/24 14:47:50;;;;;;;;;;;32.00;62.60;;;;;;5088189;28;19928;-86
2022/07/24 14:50:22;;;;;;;;;;;32.10;61.60;;;;;;5089236;28;19932;-89
2022/07/24 14:52:55;;;;;;;;;;;32.40;61.40;;;;;;5062132;28;19931;-86
2022/07/24 14:55:23;;;;;;;;;;;32.70;61.00;;;;;;5089211;28;19932;-87
2022/07/24 14:57:53;;;;;;;;;;;32.90;60.60;;;;;;5087399;28;19924;-86
2022/07/24 15:00:24;;;;;;;;;;;32.80;60.10;;;;;;5086642;28;19933;-86
2022/07/24 15:02:58;;;;;;;;;;;32.70;60.00;;;;;;5087864;28;19939;-85
2022/07/24 15:05:29;;;;;;;;;;;32.60;60.00;;;;;;5062078;28;19932;-85
2022/07/24 15:07:58;;;;;;;;;;;32.20;59.80;;;;;;5088443;28;19924;-85
2022/07/24 15:10:29;;;;;;;;;;;32.00;60.00;;;;;;5084354;28;19935;-86